Time;durP1;ratioP1;P1;durP2;ratioP2;P2;SDS_P1;SDS_P2;PMS_P1;PMS_P2;Temp;Humidity;BMP_temperature;BMP_pressure;BME280_temperature;BME280_humidity;BME280_pressure;Samples;Min_cycle;Max_cycle;Signal;HPM_P1;HPM_P2
2023/05/11 00:02:14;;;;;;;9.00;4.35;;;;;;;;;;5093351;28;20093;-63
2023/05/11 00:04:42;;;;;;;6.40;4.10;;;;;;;;;;5092969;28;20542;-62
2023/05/11 00:07:10;;;;;;;7.53;4.57;;;;;;;;;;5092094;28;20375;-63
2023/05/11 00:09:37;;;;;;;6.07;4.45;;;;;;;;;;5093240;28;20036;-63
2023/05/11 00:12:05;;;;;;;5.57;4.35;;;;;;;;;;5093289;28;20093;-63
2023/05/11 00:14:32;;;;;;;6.43;4.18;;;;;;;;;;5092963;28;20478;-63
2023/05/11 00:16:59;;;;;;;7.82;5.00;;;;;;;;;;5092943;28;20032;-63
2023/05/11 00:19:30;;;;;;;8.18;4.00;;;;;;;;;;5092852;28;20038;-63
2023/05/11 00:21:58;;;;;;;6.70;4.78;;;;;;;;;;5092020;28;20052;-63
2023/05/11 00:24:25;;;;;;;6.50;4.70;;;;;;;;;;5092821;28;20486;-63
2023/05/11 00:26:53;;;;;;;7.38;4.63;;;;;;;;;;5093100;28;20044;-63
2023/05/11 00:29:20;;;;;;;7.47;4.90;;;;;;;;;;5091520;28;20375;-63
2023/05/11 00:31:48;;;;;;;10.38;4.95;;;;;;;;;;5091592;28;20051;-63
2023/05/11 00:34:17;;;;;;;10.27;5.53;;;;;;;;;;5092902;28;20048;-62
2023/05/11 00:36:45;;;;;;;6.63;4.85;;;;;;;;;;5074500;28;20048;-63
2023/05/11 00:39:12;;;;;;;8.65;4.80;;;;;;;;;;5091712;28;20043;-62
2023/05/11 00:41:40;;;;;;;11.43;5.63;;;;;;;;;;5074719;28;20117;-63
2023/05/11 00:44:07;;;;;;;10.07;5.50;;;;;;;;;;5091474;28;20390;-62
2023/05/11 00:46:35;;;;;;;8.90;6.28;;;;;;;;;;5091527;28;20044;-63
2023/05/11 00:49:02;;;;;;;8.27;6.07;;;;;;;;;;5074713;28;20036;-63
2023/05/11 00:51:31;;;;;;;10.38;6.22;;;;;;;;;;5075001;28;20367;-63
2023/05/11 00:53:59;;;;;;;11.95;6.45;;;;;;;;;;5092946;28;20483;-62
2023/05/11 00:56:27;;;;;;;11.90;6.45;;;;;;;;;;5091553;28;20108;-63
2023/05/11 00:58:54;;;;;;;10.00;6.30;;;;;;;;;;5091346;28;20054;-62
2023/05/11 01:01:22;;;;;;;10.20;6.53;;;;;;;;;;5092586;28;20039;-63
2023/05/11 01:03:50;;;;;;;11.40;6.63;;;;;;;;;;5094663;28;20101;-63
2023/05/11 01:06:27;;;;;;;10.73;6.50;;;;;;;;;;5061789;28;20506;-61
2023/05/11 01:08:59;;;;;;;10.85;6.95;;;;;;;;;;5095100;28;20040;-62
2023/05/11 01:11:33;;;;;;;8.48;6.35;;;;;;;;;;5096649;28;20058;-62
2023/05/11 01:14:06;;;;;;;11.75;6.85;;;;;;;;;;5096309;28;20040;-63
2023/05/11 01:16:37;;;;;;;11.60;6.65;;;;;;;;;;5095018;28;20670;-63
2023/05/11 01:19:18;;;;;;;9.07;6.47;;;;;;;;;;5095201;28;20077;-63
2023/05/11 01:21:46;;;;;;;9.63;6.45;;;;;;;;;;5095379;28;20040;-63
2023/05/11 01:24:20;;;;;;;9.80;6.45;;;;;;;;;;5095003;28;20044;-63
2023/05/11 01:26:47;;;;;;;11.25;6.72;;;;;;;;;;5094992;28;20044;-62
2023/05/11 01:29:36;;;;;;;10.57;6.65;;;;;;;;;;5094886;28;20032;-63
2023/05/11 01:32:06;;;;;;;8.98;6.05;;;;;;;;;;5094912;28;20040;-62
2023/05/11 01:34:35;;;;;;;9.05;6.25;;;;;;;;;;5078179;28;20055;-62
2023/05/11 01:37:09;;;;;;;9.88;7.30;;;;;;;;;;5094612;28;20048;-62
2023/05/11 01:39:43;;;;;;;9.00;6.57;;;;;;;;;;5095964;28;20036;-63
2023/05/11 01:42:12;;;;;;;9.25;6.82;;;;;;;;;;5094705;28;20097;-62
2023/05/11 01:44:43;;;;;;;12.07;6.72;;;;;;;;;;5095094;28;20047;-62
2023/05/11 01:47:12;;;;;;;14.98;7.10;;;;;;;;;;5094505;28;20048;-63
2023/05/11 01:49:42;;;;;;;11.52;6.88;;;;;;;;;;5094736;28;20567;-63
2023/05/11 01:52:10;;;;;;;15.50;7.70;;;;;;;;;;5077614;28;20097;-62
2023/05/11 01:54:38;;;;;;;7.50;5.78;;;;;;;;;;5094509;28;20036;-62
2023/05/11 01:57:06;;;;;;;10.05;6.35;;;;;;;;;;5095855;28;20040;-62
2023/05/11 01:59:35;;;;;;;13.32;6.97;;;;;;;;;;5094351;28;20044;-63
2023/05/11 02:02:03;;;;;;;10.32;6.70;;;;;;;;;;5095604;28;20043;-62
2023/05/11 02:04:31;;;;;;;8.25;5.88;;;;;;;;;;5095371;28;20444;-63
2023/05/11 02:07:00;;;;;;;12.77;7.00;;;;;;;;;;5077327;28;20048;-63
2023/05/11 02:09:29;;;;;;;10.00;6.70;;;;;;;;;;5077206;28;20494;-62
2023/05/11 02:11:57;;;;;;;8.70;6.30;;;;;;;;;;5094047;28;20130;-62
2023/05/11 02:14:27;;;;;;;8.25;6.85;;;;;;;;;;5093249;28;20127;-62
2023/05/11 02:16:56;;;;;;;14.02;6.88;;;;;;;;;;5095404;28;20478;-62
2023/05/11 02:19:24;;;;;;;8.60;6.55;;;;;;;;;;5093977;28;20101;-62
2023/05/11 02:21:52;;;;;;;10.50;6.75;;;;;;;;;;5093740;28;20052;-62
2023/05/11 02:24:20;;;;;;;10.63;6.97;;;;;;;;;;5060579;28;20040;-63
2023/05/11 02:26:48;;;;;;;11.82;7.30;;;;;;;;;;5076969;28;20067;-63
2023/05/11 02:29:16;;;;;;;12.48;6.90;;;;;;;;;;5094044;28;20040;-63
2023/05/11 02:31:45;;;;;;;9.80;6.55;;;;;;;;;;5093540;28;20041;-63
2023/05/11 02:34:20;;;;;;;10.30;7.57;;;;;;;;;;5093160;28;20090;-63
2023/05/11 02:36:48;;;;;;;11.70;7.03;;;;;;;;;;5076771;28;20502;-63
2023/05/11 02:39:20;;;;;;;10.73;7.22;;;;;;;;;;5093635;28;20054;-63
2023/05/11 02:41:53;;;;;;;14.23;7.57;;;;;;;;;;5093504;28;20093;-63
2023/05/11 02:44:22;;;;;;;12.70;7.10;;;;;;;;;;5076790;28;20505;-63
2023/05/11 02:46:52;;;;;;;11.15;7.32;;;;;;;;;;5093719;28;20032;-63
2023/05/11 02:49:21;;;;;;;11.18;6.88;;;;;;;;;;5093275;28;20180;-63
2023/05/11 02:51:50;;;;;;;9.32;7.35;;;;;;;;;;5093456;28;20486;-63
2023/05/11 02:54:18;;;;;;;15.90;8.77;;;;;;;;;;5076506;28;20401;-63
2023/05/11 02:56:50;;;;;;;11.40;7.38;;;;;;;;;;5093269;28;20047;-63
2023/05/11 02:59:19;;;;;;;10.05;7.30;;;;;;;;;;5092956;28;20040;-63
2023/05/11 03:01:47;;;;;;;11.30;7.43;;;;;;;;;;5093146;28;20501;-63
2023/05/11 03:04:15;;;;;;;11.18;7.35;;;;;;;;;;5076485;28;20501;-63
2023/05/11 03:06:42;;;;;;;12.00;7.88;;;;;;;;;;5094261;28;20039;-63
2023/05/11 03:09:10;;;;;;;13.10;7.47;;;;;;;;;;5093268;28;20068;-63
2023/05/11 03:11:43;;;;;;;11.05;7.97;;;;;;;;;;5076286;28;20044;-63
2023/05/11 03:14:11;;;;;;;10.27;7.45;;;;;;;;;;5076102;28;20426;-63
2023/05/11 03:16:41;;;;;;;13.85;7.03;;;;;;;;;;5092388;28;20036;-63
2023/05/11 03:19:09;;;;;;;12.05;7.57;;;;;;;;;;5075904;28;20101;-63
2023/05/11 03:21:37;;;;;;;13.82;7.47;;;;;;;;;;5093867;28;20040;-63
2023/05/11 03:24:07;;;;;;;11.02;7.53;;;;;;;;;;5093937;28;20119;-63
2023/05/11 03:26:36;;;;;;;15.98;8.10;;;;;;;;;;5091481;28;20048;-63
2023/05/11 03:29:04;;;;;;;10.00;7.05;;;;;;;;;;5092785;28;20036;-63
2023/05/11 03:31:32;;;;;;;12.15;8.15;;;;;;;;;;5092475;28;20052;-63
2023/05/11 03:33:59;;;;;;;11.68;7.93;;;;;;;;;;5075637;28;20494;-63
2023/05/11 03:36:31;;;;;;;13.65;7.90;;;;;;;;;;5092383;28;20040;-63
2023/05/11 03:38:59;;;;;;;10.63;7.45;;;;;;;;;;5078158;28;20074;-63
2023/05/11 03:41:31;;;;;;;10.20;7.35;;;;;;;;;;5092185;28;20039;-63
2023/05/11 03:44:00;;;;;;;11.98;7.00;;;;;;;;;;5092619;28;20040;-63
2023/05/11 03:46:28;;;;;;;12.93;7.78;;;;;;;;;;5092090;28;20040;-64
2023/05/11 03:48:56;;;;;;;11.93;7.07;;;;;;;;;;5075169;28;20089;-63
2023/05/11 03:51:26;;;;;;;11.98;7.50;;;;;;;;;;5075402;28;20441;-63
2023/05/11 03:53:55;;;;;;;12.48;7.25;;;;;;;;;;5092103;28;20040;-64
2023/05/11 03:56:22;;;;;;;11.73;7.15;;;;;;;;;;5075309;28;20486;-64
2023/05/11 03:58:57;;;;;;;10.43;7.25;;;;;;;;;;5069941;28;20410;-61
2023/05/11 04:01:25;;;;;;;22.23;12.20;;;;;;;;;;5068941;28;20045;-63
2023/05/11 04:03:53;;;;;;;11.88;7.95;;;;;;;;;;5068414;28;20040;-63
2023/05/11 04:06:23;;;;;;;11.93;8.13;;;;;;;;;;5068509;28;20102;-63
2023/05/11 04:09:05;;;;;;;10.40;7.57;;;;;;;;;;5068471;28;20407;-64
2023/05/11 04:11:35;;;;;;;13.82;8.05;;;;;;;;;;5068389;28;20055;-63
2023/05/11 04:14:04;;;;;;;10.77;7.22;;;;;;;;;;5070011;28;20411;-63
2023/05/11 04:16:31;;;;;;;11.93;7.35;;;;;;;;;;5068441;28;20490;-63
2023/05/11 04:18:58;;;;;;;11.75;8.00;;;;;;;;;;5068268;28;20075;-63
2023/05/11 04:21:26;;;;;;;12.10;7.15;;;;;;;;;;5102275;28;20513;-63
2023/05/11 04:23:53;;;;;;;15.40;7.80;;;;;;;;;;5068425;28;20056;-63
2023/05/11 04:26:21;;;;;;;10.93;6.40;;;;;;;;;;5068200;28;20114;-64
2023/05/11 04:28:52;;;;;;;8.90;6.60;;;;;;;;;;5069105;28;20102;-64
2023/05/11 04:31:19;;;;;;;9.85;6.53;;;;;;;;;;5069100;28;20044;-64
2023/05/11 04:33:47;;;;;;;10.05;6.47;;;;;;;;;;5067629;28;20041;-63
2023/05/11 04:36:15;;;;;;;11.38;6.32;;;;;;;;;;5068000;28;20071;-63
2023/05/11 04:38:44;;;;;;;12.10;6.32;;;;;;;;;;5067757;28;20041;-63
2023/05/11 04:41:13;;;;;;;8.18;5.68;;;;;;;;;;5067652;28;20040;-63
2023/05/11 04:43:41;;;;;;;9.30;6.35;;;;;;;;;;5067640;28;20051;-63
2023/05/11 04:46:09;;;;;;;10.48;6.45;;;;;;;;;;5066467;28;20857;-62
2023/05/11 04:48:37;;;;;;;10.77;7.32;;;;;;;;;;5068294;28;20071;-62
2023/05/11 04:51:06;;;;;;;10.20;6.55;;;;;;;;;;5066926;28;20044;-64
2023/05/11 04:53:39;;;;;;;9.73;5.53;;;;;;;;;;5066528;28;20044;-63
2023/05/11 04:56:07;;;;;;;8.35;4.90;;;;;;;;;;5101027;28;20052;-63
2023/05/11 04:58:34;;;;;;;9.82;5.35;;;;;;;;;;5067117;28;20059;-64
2023/05/11 05:01:02;;;;;;;11.43;6.50;;;;;;;;;;5068847;28;20445;-64
2023/05/11 05:03:30;;;;;;;6.65;5.65;;;;;;;;;;5067837;28;20055;-64
2023/05/11 05:05:57;;;;;;;13.73;5.90;;;;;;;;;;5067353;28;20037;-64
2023/05/11 05:08:25;;;;;;;8.68;4.95;;;;;;;;;;5064730;28;20068;-63
2023/05/11 05:10:53;;;;;;;7.97;4.90;;;;;;;;;;5054189;28;20498;-63
2023/05/11 05:13:20;;;;;;;7.60;5.20;;;;;;;;;;5054098;28;20159;-64
2023/05/11 05:15:48;;;;;;;9.30;4.68;;;;;;;;;;5054220;28;20473;-63
2023/05/11 05:18:15;;;;;;;10.27;4.72;;;;;;;;;;5053909;28;20037;-64
2023/05/11 05:20:44;;;;;;;6.03;3.85;;;;;;;;;;5053993;28;20083;-63
2023/05/11 05:23:12;;;;;;;8.55;4.55;;;;;;;;;;5054084;28;20494;-63
2023/05/11 05:25:39;;;;;;;6.82;4.90;;;;;;;;;;5053899;28;20564;-64
2023/05/11 05:28:07;;;;;;;8.13;4.00;;;;;;;;;;5053949;28;20056;-63
2023/05/11 05:30:35;;;;;;;5.85;4.35;;;;;;;;;;5055161;28;20551;-64
2023/05/11 05:33:03;;;;;;;8.30;4.32;;;;;;;;;;5053740;28;20047;-64
2023/05/11 05:35:33;;;;;;;6.75;3.97;;;;;;;;;;5037753;28;20114;-64
2023/05/11 05:38:00;;;;;;;6.15;4.05;;;;;;;;;;5054765;28;20438;-64
2023/05/11 05:40:28;;;;;;;5.18;4.00;;;;;;;;;;5053673;28;20686;-64
2023/05/11 05:42:56;;;;;;;6.45;4.10;;;;;;;;;;5053430;28;20037;-64
2023/05/11 05:45:24;;;;;;;6.30;3.80;;;;;;;;;;5053418;28;20045;-64
2023/05/11 05:47:52;;;;;;;7.20;3.88;;;;;;;;;;5053415;28;20473;-64
2023/05/11 05:50:21;;;;;;;7.22;3.40;;;;;;;;;;5053366;28;20499;-65
2023/05/11 05:52:48;;;;;;;6.00;3.08;;;;;;;;;;5053101;28;20051;-64
2023/05/11 05:55:16;;;;;;;6.10;2.70;;;;;;;;;;5054519;28;20037;-65
2023/05/11 05:57:48;;;;;;;4.32;2.95;;;;;;;;;;5052934;28;20052;-64
2023/05/11 06:00:16;;;;;;;4.32;2.80;;;;;;;;;;5052981;28;20072;-64
2023/05/11 06:02:49;;;;;;;6.37;2.87;;;;;;;;;;5053000;28;20037;-65
2023/05/11 06:05:23;;;;;;;6.32;3.92;;;;;;;;;;5053083;28;20048;-64
2023/05/11 06:07:51;;;;;;;5.55;3.00;;;;;;;;;;5052984;28;20049;-64
2023/05/11 06:10:36;;;;;;;;;;;;;;;;;;5053430;28;20064;-64
2023/05/11 06:13:04;;;;;;;7.47;3.03;;;;;;;;;;5053002;28;19921;-63
2023/05/11 06:15:31;;;;;;;3.78;2.88;;;;;;;;;;5052918;28;20044;-64
2023/05/11 06:18:06;;;;;;;6.10;3.30;;;;;;;;;;5052746;28;20102;-64
2023/05/11 06:20:35;;;;;;;4.78;3.30;;;;;;;;;;5085283;28;20515;-65
2023/05/11 06:23:04;;;;;;;7.88;3.22;;;;;;;;;;5052676;28;20136;-63
2023/05/11 06:25:35;;;;;;;6.15;3.40;;;;;;;;;;5052706;28;20040;-64
2023/05/11 06:28:03;;;;;;;5.65;3.05;;;;;;;;;;5052530;28;20528;-64
2023/05/11 06:30:32;;;;;;;3.58;2.90;;;;;;;;;;5052820;28;20430;-64
2023/05/11 06:33:01;;;;;;;5.72;3.03;;;;;;;;;;5086017;28;20456;-64
2023/05/11 06:35:29;;;;;;;6.65;3.17;;;;;;;;;;5052555;28;20045;-64
2023/05/11 06:37:57;;;;;;;6.22;3.30;;;;;;;;;;5085728;28;20380;-64
2023/05/11 06:40:25;;;;;;;6.00;3.30;;;;;;;;;;5053490;28;20041;-64
2023/05/11 06:42:52;;;;;;;5.93;3.53;;;;;;;;;;5052097;28;20076;-64
2023/05/11 06:45:20;;;;;;;4.10;3.03;;;;;;;;;;5052398;28;20037;-64
2023/05/11 06:47:48;;;;;;;4.72;3.28;;;;;;;;;;5052107;28;20049;-64
2023/05/11 06:50:15;;;;;;;5.85;3.10;;;;;;;;;;5053365;28;20036;-63
2023/05/11 06:52:45;;;;;;;5.40;2.70;;;;;;;;;;5052220;28;20049;-64
2023/05/11 06:55:15;;;;;;;5.45;3.00;;;;;;;;;;5053283;28;20063;-63
2023/05/11 06:57:43;;;;;;;4.50;2.95;;;;;;;;;;5052926;28;20477;-63
2023/05/11 07:00:10;;;;;;;3.85;2.92;;;;;;;;;;5053033;28;20483;-63
2023/05/11 07:02:38;;;;;;;4.40;2.83;;;;;;;;;;5053227;28;20040;-63
2023/05/11 07:05:06;;;;;;;4.03;2.83;;;;;;;;;;5051893;28;20119;-63
2023/05/11 07:07:33;;;;;;;7.45;3.33;;;;;;;;;;5052997;28;20044;-63
2023/05/11 07:10:01;;;;;;;6.65;3.00;;;;;;;;;;5051923;28;20087;-64
2023/05/11 07:12:28;;;;;;;4.95;3.15;;;;;;;;;;5085208;28;20052;-63
2023/05/11 07:14:55;;;;;;;5.68;3.70;;;;;;;;;;5051663;28;20041;-63
2023/05/11 07:17:23;;;;;;;5.50;3.42;;;;;;;;;;5053169;28;20140;-64
2023/05/11 07:19:51;;;;;;;6.30;3.45;;;;;;;;;;5052826;28;20133;-64
2023/05/11 07:22:18;;;;;;;4.88;3.22;;;;;;;;;;5052894;28;20047;-65
2023/05/11 07:24:46;;;;;;;5.82;4.10;;;;;;;;;;5052872;28;20124;-63
2023/05/11 07:27:13;;;;;;;6.40;3.67;;;;;;;;;;5052631;28;20040;-63
2023/05/11 07:29:41;;;;;;;4.20;2.92;;;;;;;;;;5052760;28;20102;-63
2023/05/11 07:32:08;;;;;;;6.80;3.30;;;;;;;;;;5052547;28;20045;-63
2023/05/11 07:34:36;;;;;;;4.20;3.00;;;;;;;;;;5052656;28;20068;-63
2023/05/11 07:37:03;;;;;;;5.97;3.08;;;;;;;;;;5052686;28;20119;-63
2023/05/11 07:39:31;;;;;;;6.32;3.00;;;;;;;;;;5051398;28;20049;-63
2023/05/11 07:41:58;;;;;;;6.55;3.30;;;;;;;;;;5052621;28;20056;-64
2023/05/11 07:44:25;;;;;;;4.45;3.10;;;;;;;;;;5051237;28;20048;-64
2023/05/11 07:46:53;;;;;;;13.48;8.43;;;;;;;;;;5052639;28;20045;-64
2023/05/11 07:49:21;;;;;;;9.23;4.95;;;;;;;;;;5051117;28;20506;-64
2023/05/11 07:52:01;;;;;;;8.23;4.47;;;;;;;;;;5051368;28;20060;-63
2023/05/11 07:54:29;;;;;;;11.02;4.50;;;;;;;;;;5052315;28;20066;-64
2023/05/11 07:56:57;;;;;;;4.07;2.65;;;;;;;;;;5052550;28;20567;-64
2023/05/11 07:59:24;;;;;;;7.82;4.78;;;;;;;;;;5052360;28;20041;-64
2023/05/11 08:01:51;;;;;;;17.30;12.25;;;;;;;;;;5052441;28;20056;-64
2023/05/11 08:04:19;;;;;;;6.15;3.50;;;;;;;;;;5052372;28;20136;-64
2023/05/11 08:06:47;;;;;;;6.53;2.60;;;;;;;;;;5052352;28;20066;-65
2023/05/11 08:09:14;;;;;;;4.60;2.58;;;;;;;;;;5052247;28;20159;-64
2023/05/11 08:11:42;;;;;;;6.28;2.70;;;;;;;;;;5052283;28;20434;-63
2023/05/11 08:14:09;;;;;;;6.38;2.90;;;;;;;;;;5052646;28;20077;-63
2023/05/11 08:16:37;;;;;;;4.45;2.70;;;;;;;;;;5052183;28;20037;-66
2023/05/11 08:19:04;;;;;;;3.78;2.55;;;;;;;;;;5052248;28;20040;-64
2023/05/11 08:21:32;;;;;;;4.75;2.45;;;;;;;;;;5052214;28;20120;-64
2023/05/11 08:24:00;;;;;;;5.55;2.88;;;;;;;;;;5052034;28;20048;-63
2023/05/11 08:26:27;;;;;;;4.35;2.80;;;;;;;;;;5052051;28;20049;-64
2023/05/11 08:28:54;;;;;;;4.32;2.40;;;;;;;;;;5052125;28;20056;-63
2023/05/11 08:31:22;;;;;;;3.22;2.33;;;;;;;;;;5052012;28;20045;-64
2023/05/11 08:33:50;;;;;;;5.88;2.30;;;;;;;;;;5050805;28;20562;-64
2023/05/11 08:36:17;;;;;;;6.13;2.28;;;;;;;;;;5052108;28;20044;-64
2023/05/11 08:38:45;;;;;;;5.20;2.30;;;;;;;;;;5050670;28;20456;-64
2023/05/11 08:41:12;;;;;;;5.35;2.70;;;;;;;;;;5050586;28;20068;-64
2023/05/11 08:43:40;;;;;;;8.25;2.83;;;;;;;;;;5052475;28;20041;-63
2023/05/11 08:46:08;;;;;;;3.13;2.70;;;;;;;;;;5055828;28;20090;-64
2023/05/11 08:48:35;;;;;;;4.55;2.80;;;;;;;;;;5055798;28;20033;-63
2023/05/11 08:51:03;;;;;;;4.68;2.63;;;;;;;;;;5055835;28;20083;-64
2023/05/11 08:53:31;;;;;;;6.35;3.10;;;;;;;;;;5055688;28;20041;-64
2023/05/11 08:56:00;;;;;;;5.63;3.00;;;;;;;;;;5055552;28;20121;-63
2023/05/11 08:58:29;;;;;;;4.38;2.42;;;;;;;;;;5055439;28;20048;-64
2023/05/11 09:00:57;;;;;;;3.60;2.80;;;;;;;;;;5054335;28;20045;-64
2023/05/11 09:03:24;;;;;;;6.78;4.20;;;;;;;;;;5055425;28;20040;-63
2023/05/11 09:05:52;;;;;;;3.55;2.70;;;;;;;;;;5054355;28;20486;-65
2023/05/11 09:08:21;;;;;;;4.28;2.40;;;;;;;;;;5055447;28;20530;-64
2023/05/11 09:10:49;;;;;;;3.55;2.30;;;;;;;;;;5055273;28;20051;-63
2023/05/11 09:13:16;;;;;;;5.32;2.40;;;;;;;;;;5055351;28;20095;-63
2023/05/11 09:15:43;;;;;;;10.65;5.85;;;;;;;;;;5054188;28;20125;-64
2023/05/11 09:18:12;;;;;;;8.75;4.13;;;;;;;;;;5055017;28;20033;-63
2023/05/11 09:20:42;;;;;;;10.93;5.65;;;;;;;;;;5055261;28;20037;-63
2023/05/11 09:23:10;;;;;;;8.30;4.55;;;;;;;;;;5055145;28;20045;-63
2023/05/11 09:25:38;;;;;;;9.48;5.78;;;;;;;;;;5055283;28;20051;-64
2023/05/11 09:28:06;;;;;;;5.97;4.50;;;;;;;;;;5055642;28;20052;-63
2023/05/11 09:30:33;;;;;;;5.18;2.10;;;;;;;;;;5055232;28;20494;-63
2023/05/11 09:33:04;;;;;;;5.63;2.67;;;;;;;;;;5054030;28;20508;-64
2023/05/11 09:35:32;;;;;;;6.43;2.80;;;;;;;;;;5053871;28;20051;-63
2023/05/11 09:38:02;;;;;;;4.18;2.10;;;;;;;;;;5055330;28;20045;-63
2023/05/11 09:40:31;;;;;;;5.32;2.20;;;;;;;;;;5053974;28;20076;-64
2023/05/11 09:43:01;;;;;;;4.22;2.35;;;;;;;;;;5054129;28;20457;-63
2023/05/11 09:45:35;;;;;;;2.70;2.00;;;;;;;;;;5055046;28;20072;-64
2023/05/11 09:48:03;;;;;;;3.85;1.75;;;;;;;;;;5055122;28;20041;-63
2023/05/11 09:50:32;;;;;;;1.90;1.42;;;;;;;;;;5055340;28;20204;-62
2023/05/11 09:52:59;;;;;;;2.65;1.85;;;;;;;;;;5053654;28;20049;-63
2023/05/11 09:55:28;;;;;;;4.95;2.30;;;;;;;;;;5053625;28;20091;-64
2023/05/11 09:57:57;;;;;;;2.53;1.73;;;;;;;;;;5054700;28;20045;-64
2023/05/11 10:00:24;;;;;;;4.80;2.30;;;;;;;;;;5053337;28;20107;-64
2023/05/11 10:03:05;;;;;;;4.20;2.35;;;;;;;;;;5054529;28;20091;-63
2023/05/11 10:05:34;;;;;;;4.72;2.50;;;;;;;;;;5053129;28;20103;-63
2023/05/11 10:08:05;;;;;;;5.07;2.33;;;;;;;;;;5054374;28;20159;-63
2023/05/11 10:10:34;;;;;;;3.20;1.88;;;;;;;;;;5054564;28;20403;-63
2023/05/11 10:13:02;;;;;;;6.03;2.88;;;;;;;;;;5052959;28;20111;-63
2023/05/11 10:15:31;;;;;;;6.03;2.65;;;;;;;;;;5054113;28;20075;-63
2023/05/11 10:18:00;;;;;;;8.80;2.00;;;;;;;;;;5054356;28;20049;-63
2023/05/11 10:20:27;;;;;;;3.88;1.80;;;;;;;;;;5053991;28;20037;-64
2023/05/11 10:22:55;;;;;;;7.53;2.08;;;;;;;;;;5052645;28;20037;-63
2023/05/11 10:25:23;;;;;;;3.88;2.05;;;;;;;;;;5054045;28;20068;-63
2023/05/11 10:27:51;;;;;;;3.65;1.98;;;;;;;;;;5053937;28;20491;-63
2023/05/11 10:30:18;;;;;;;4.35;2.00;;;;;;;;;;5054008;28;20103;-63
2023/05/11 10:32:46;;;;;;;2.92;2.05;;;;;;;;;;5053989;28;20053;-63
2023/05/11 10:35:14;;;;;;;2.80;1.70;;;;;;;;;;5052602;28;20071;-64
2023/05/11 10:37:42;;;;;;;2.50;1.95;;;;;;;;;;5053858;28;20409;-64
2023/05/11 10:40:10;;;;;;;2.95;1.98;;;;;;;;;;5053690;28;20036;-63
2023/05/11 10:42:41;;;;;;;4.40;1.90;;;;;;;;;;5053678;28;20036;-63
2023/05/11 10:45:24;;;;;;;3.35;1.73;;;;;;;;;;5053677;28;20037;-63
2023/05/11 10:47:54;;;;;;;4.78;2.13;;;;;;;;;;5053574;28;20033;-63
2023/05/11 10:50:37;;;;;;;2.83;1.88;;;;;;;;;;5053571;28;20036;-63
2023/05/11 10:53:28;;;;;;;3.33;1.80;;;;;;;;;;5053442;28;20041;-63
2023/05/11 10:56:08;;;;;;;4.18;1.63;;;;;;;;;;5043201;28;20052;-63
2023/05/11 10:58:39;;;;;;;2.10;1.80;;;;;;;;;;5053138;28;20053;-63
2023/05/11 11:01:25;;;;;;;4.38;1.80;;;;;;;;;;5052055;28;20053;-62
2023/05/11 11:04:01;;;;;;;2.97;1.42;;;;;;;;;;5052993;28;20041;-63
2023/05/11 11:06:29;;;;;;;2.78;1.63;;;;;;;;;;5052349;28;20095;-63
2023/05/11 11:09:00;;;;;;;3.33;1.45;;;;;;;;;;5052770;28;20045;-63
2023/05/11 11:11:28;;;;;;;4.32;1.77;;;;;;;;;;5052865;28;20044;-63
2023/05/11 11:13:56;;;;;;;1.52;1.42;;;;;;;;;;5053062;28;20086;-63
2023/05/11 11:16:24;;;;;;;4.22;1.85;;;;;;;;;;5052455;28;20045;-64
2023/05/11 11:18:52;;;;;;;1.92;1.58;;;;;;;;;;5050794;28;20041;-64
2023/05/11 11:21:40;;;;;;;7.50;4.35;;;;;;;;;;5052957;28;20041;-62
2023/05/11 11:24:07;;;;;;;6.60;3.55;;;;;;;;;;5085364;28;20132;-63
2023/05/11 11:26:49;;;;;;;4.97;2.20;;;;;;;;;;5052857;28;20045;-63
2023/05/11 11:29:17;;;;;;;5.40;3.10;;;;;;;;;;5052824;28;20041;-63
2023/05/11 11:31:44;;;;;;;4.10;1.70;;;;;;;;;;5052826;28;20075;-62
2023/05/11 11:34:24;;;;;;;3.40;1.70;;;;;;;;;;5052728;28;20396;-63
2023/05/11 11:36:54;;;;;;;2.47;1.70;;;;;;;;;;5052656;28;20135;-63
2023/05/11 11:39:24;;;;;;;4.75;2.15;;;;;;;;;;5052725;28;20123;-63
2023/05/11 11:42:01;;;;;;;2.45;2.00;;;;;;;;;;5052693;28;20067;-63
2023/05/11 11:44:30;;;;;;;3.05;2.00;;;;;;;;;;5052685;28;20075;-63
2023/05/11 11:47:18;;;;;;;4.38;1.70;;;;;;;;;;5052850;28;20380;-63
2023/05/11 11:49:51;;;;;;;2.90;1.92;;;;;;;;;;5052336;28;20040;-63
2023/05/11 11:52:27;;;;;;;1.98;1.73;;;;;;;;;;5052594;28;20041;-63
2023/05/11 11:54:55;;;;;;;2.00;1.80;;;;;;;;;;5052531;28;20448;-63
2023/05/11 11:57:35;;;;;;;1.77;1.63;;;;;;;;;;5052487;28;20056;-63
2023/05/11 12:00:05;;;;;;;2.22;1.60;;;;;;;;;;5051232;28;20037;-63
2023/05/11 12:02:42;;;;;;;4.80;1.60;;;;;;;;;;5052382;28;20103;-63
2023/05/11 12:05:17;;;;;;;5.00;1.63;;;;;;;;;;5052460;28;20118;-63
2023/05/11 12:07:46;;;;;;;3.47;1.80;;;;;;;;;;5052262;28;20087;-62
2023/05/11 12:10:16;;;;;;;4.25;2.00;;;;;;;;;;5048734;28;20124;-63
2023/05/11 12:12:47;;;;;;;2.25;1.73;;;;;;;;;;5048305;28;20037;-62
2023/05/11 12:15:28;;;;;;;3.10;1.80;;;;;;;;;;5041418;28;20484;-62
2023/05/11 12:17:56;;;;;;;2.67;1.60;;;;;;;;;;5050663;28;20068;-62
2023/05/11 12:20:24;;;;;;;2.65;1.90;;;;;;;;;;5055069;28;20410;-63
2023/05/11 12:22:52;;;;;;;2.00;1.60;;;;;;;;;;5055705;28;20041;-62
2023/05/11 12:25:20;;;;;;;2.10;1.70;;;;;;;;;;5055585;28;20041;-63
2023/05/11 12:27:48;;;;;;;3.03;1.98;;;;;;;;;;5047338;28;20128;-62
2023/05/11 12:30:19;;;;;;;3.17;1.90;;;;;;;;;;5050588;28;20037;-62
2023/05/11 12:32:47;;;;;;;3.65;1.98;;;;;;;;;;5055803;28;20048;-63
2023/05/11 12:35:21;;;;;;;2.25;1.88;;;;;;;;;;5055648;28;20055;-63
2023/05/11 12:37:48;;;;;;;5.28;2.47;;;;;;;;;;5055736;28;20094;-63
2023/05/11 12:40:16;;;;;;;3.10;1.98;;;;;;;;;;5055466;28;20083;-62
2023/05/11 12:42:53;;;;;;;6.60;2.13;;;;;;;;;;5050392;28;20038;-62
2023/05/11 12:45:22;;;;;;;5.97;2.28;;;;;;;;;;5047931;28;20494;-63
2023/05/11 12:47:51;;;;;;;4.40;1.83;;;;;;;;;;5055182;28;20037;-63
2023/05/11 12:50:19;;;;;;;2.15;1.95;;;;;;;;;;5055442;28;20045;-63
2023/05/11 12:52:47;;;;;;;3.60;1.70;;;;;;;;;;5055243;28;20040;-63
2023/05/11 12:55:26;;;;;;;3.50;1.80;;;;;;;;;;5055308;28;20498;-63
2023/05/11 12:58:06;;;;;;;1.88;1.77;;;;;;;;;;5054865;28;20049;-62
2023/05/11 13:00:33;;;;;;;2.10;1.90;;;;;;;;;;5055539;28;20052;-63
2023/05/11 13:03:01;;;;;;;2.15;1.77;;;;;;;;;;5055183;28;20056;-62
2023/05/11 13:05:29;;;;;;;3.22;1.90;;;;;;;;;;5055218;28;20453;-62
2023/05/11 13:08:00;;;;;;;1.75;1.65;;;;;;;;;;5054967;28;20384;-63
2023/05/11 13:10:27;;;;;;;2.75;2.13;;;;;;;;;;5054712;28;20486;-63
2023/05/11 13:12:55;;;;;;;4.28;2.08;;;;;;;;;;5054774;28;20033;-62
2023/05/11 13:15:23;;;;;;;4.13;2.10;;;;;;;;;;5054886;28;20037;-62
2023/05/11 13:17:58;;;;;;;4.35;2.42;;;;;;;;;;5041500;28;20499;-62
2023/05/11 13:20:26;;;;;;;4.90;2.28;;;;;;;;;;5041148;28;20056;-62
2023/05/11 13:23:04;;;;;;;2.22;1.95;;;;;;;;;;5054763;28;20433;-62
2023/05/11 13:25:32;;;;;;;3.70;2.28;;;;;;;;;;5054803;28;20112;-63
2023/05/11 13:28:00;;;;;;;2.50;1.90;;;;;;;;;;5054914;28;20102;-63
2023/05/11 13:30:27;;;;;;;2.85;1.80;;;;;;;;;;5053786;28;20376;-64
2023/05/11 13:32:55;;;;;;;3.35;1.90;;;;;;;;;;5054892;28;20064;-63
2023/05/11 13:35:22;;;;;;;3.05;2.22;;;;;;;;;;5054421;28;20053;-64
2023/05/11 13:37:50;;;;;;;3.38;1.88;;;;;;;;;;5052495;28;20044;-64
2023/05/11 13:40:17;;;;;;;2.38;1.77;;;;;;;;;;5054462;28;20124;-63
2023/05/11 13:42:45;;;;;;;2.40;1.80;;;;;;;;;;5053994;28;20040;-64
2023/05/11 13:45:12;;;;;;;4.05;1.90;;;;;;;;;;5054204;28;20107;-64
2023/05/11 13:47:40;;;;;;;3.47;1.90;;;;;;;;;;5054502;28;20044;-64
2023/05/11 13:50:11;;;;;;;4.10;2.08;;;;;;;;;;5054215;28;20140;-64
2023/05/11 13:52:39;;;;;;;4.47;2.40;;;;;;;;;;5054547;28;20040;-64
2023/05/11 13:55:07;;;;;;;5.32;2.10;;;;;;;;;;5053094;28;20048;-64
2023/05/11 13:57:34;;;;;;;3.25;2.42;;;;;;;;;;5053899;28;20110;-64
2023/05/11 14:00:02;;;;;;;2.92;2.35;;;;;;;;;;5054503;28;20048;-64
2023/05/11 14:02:37;;;;;;;3.85;2.50;;;;;;;;;;5053088;28;20072;-64
2023/05/11 14:05:05;;;;;;;3.08;2.40;;;;;;;;;;5053670;28;20080;-63
2023/05/11 14:07:33;;;;;;;2.30;2.08;;;;;;;;;;5053249;28;20098;-64
2023/05/11 14:10:14;;;;;;;5.43;2.15;;;;;;;;;;5053431;28;20094;-64
2023/05/11 14:12:41;;;;;;;3.25;2.17;;;;;;;;;;5053817;28;20037;-64
2023/05/11 14:15:10;;;;;;;3.72;2.05;;;;;;;;;;5053310;28;20414;-63
2023/05/11 14:17:38;;;;;;;4.18;2.00;;;;;;;;;;5041354;28;20565;-63
2023/05/11 14:20:06;;;;;;;3.55;2.05;;;;;;;;;;5051015;28;20037;-64
2023/05/11 14:22:33;;;;;;;1.75;1.63;;;;;;;;;;5053801;28;20498;-67
2023/05/11 14:25:00;;;;;;;3.25;1.98;;;;;;;;;;5035821;28;20052;-66
2023/05/11 14:27:28;;;;;;;3.42;2.15;;;;;;;;;;5053851;28;20087;-65
2023/05/11 14:29:56;;;;;;;2.83;1.90;;;;;;;;;;5053722;28;20073;-65
2023/05/11 14:32:23;;;;;;;2.63;1.80;;;;;;;;;;5053182;28;20044;-65
2023/05/11 14:34:50;;;;;;;1.80;1.70;;;;;;;;;;5051563;28;20041;-67
2023/05/11 14:37:18;;;;;;;3.85;1.67;;;;;;;;;;5053297;28;20040;-66
2023/05/11 14:39:45;;;;;;;2.72;1.63;;;;;;;;;;5053289;28;20041;-66
2023/05/11 14:42:13;;;;;;;3.28;1.80;;;;;;;;;;5052329;28;20490;-66
2023/05/11 14:44:41;;;;;;;2.47;2.13;;;;;;;;;;5053355;28;20387;-66
2023/05/11 14:47:08;;;;;;;4.78;2.33;;;;;;;;;;5053104;28;20088;-67
2023/05/11 14:49:36;;;;;;;2.65;1.88;;;;;;;;;;5053005;28;20039;-67
2023/05/11 14:52:03;;;;;;;6.88;2.50;;;;;;;;;;5053174;28;20065;-67
2023/05/11 14:54:31;;;;;;;3.30;2.33;;;;;;;;;;5053274;28;20418;-66